»·PEaware :: SWA349 KPDX-KLAS

SWA349 :: KPDX-KLAS

FLIGHT INFORMATION

Flight Status: Arrived
Operator:
Southwest Airlines
More flights by this operator :: More flights under this callsign
Pilot: Daniel W. (24238)
Aircraft: BOEING 737-700
(B737)
More flights by this aircraft type
Origin: KPDX Portland Intl
United States
Destination: KLAS McCarran Intl
United States
More flights between these airports :: More routes between these airports
Route: CASCD2 PAWLI YERIN LIDAT BTY SUNST4
File this flight plan on PilotEdge
Remarks: PBN / A1D1O1S2T1 NAV / RNVD1E1A1 RNP10 DOF / 210106 REG / N923WN EET / KZOA0048 KZLA0124 CODE / ACCB50 PER / C
Altitude:
(Current/Filed)
37,000ft
Speed:
(Current/Filed)
441kts
Departed: 06-Jan-21 12:47 PM
Arrived: 06-Jan-21 02:35 PM
Distance/Time
Traveled:
662nm/1:48
Distance/Time
To Go:
Arrived

Flight Plot

Page will automatically refresh every two minutes.

Flight plan parsing failed; only flown route is shown


Map Options




Map Legend


Flown Route
Filed Route
Departure Airport
Arrival Airport
Navaid (VOR, NDB)
Fix

Horizontal Profiles

Position Reports

Time Latitude Longitude Heading Altitude Ground
Speed
06-Jan-21 11:35 45.589840 -122.590598 224 38ft 0kts
06-Jan-21 11:36 45.589840 -122.590598 224 38ft 0kts
06-Jan-21 11:37 45.589840 -122.590598 224 38ft 0kts
06-Jan-21 11:38 45.589840 -122.590598 224 38ft 0kts
06-Jan-21 11:39 45.589840 -122.590598 224 38ft 0kts
06-Jan-21 11:40 45.589840 -122.590598 224 38ft 0kts
06-Jan-21 11:41 45.589840 -122.590598 224 38ft 0kts
06-Jan-21 11:42 45.589840 -122.590598 224 38ft 0kts
06-Jan-21 11:43 45.589840 -122.590598 224 38ft 0kts
06-Jan-21 11:45 45.589840 -122.590598 224 38ft 0kts
06-Jan-21 11:46 45.589840 -122.590598 224 38ft 0kts
06-Jan-21 11:47 45.589840 -122.590598 224 38ft 0kts
06-Jan-21 11:48 45.589840 -122.590598 224 38ft 0kts
06-Jan-21 11:49 45.589840 -122.590598 224 38ft 0kts
06-Jan-21 11:50 45.589840 -122.590598 224 38ft 0kts
06-Jan-21 11:51 45.589840 -122.590598 224 38ft 0kts
06-Jan-21 11:52 45.589840 -122.590598 224 38ft 0kts
06-Jan-21 11:53 45.589840 -122.590598 224 38ft 0kts
06-Jan-21 11:54 45.589840 -122.590598 224 38ft 0kts
06-Jan-21 11:55 45.589840 -122.590598 224 38ft 0kts
06-Jan-21 11:56 45.589840 -122.590598 224 38ft 0kts
06-Jan-21 11:57 45.589840 -122.590598 224 38ft 0kts
06-Jan-21 11:58 45.589840 -122.590598 224 38ft 0kts
06-Jan-21 11:58 45.589840 -122.590598 224 38ft 0kts
06-Jan-21 12:00 45.589840 -122.590598 224 38ft 0kts
06-Jan-21 12:01 45.589840 -122.590598 224 38ft 0kts
06-Jan-21 12:02 45.589840 -122.590598 224 38ft 0kts
06-Jan-21 12:02 45.589840 -122.590598 224 38ft 0kts
06-Jan-21 12:03 45.589840 -122.590598 224 38ft 0kts
06-Jan-21 12:04 45.589840 -122.590598 224 38ft 0kts
06-Jan-21 12:06 45.589840 -122.590598 224 38ft 0kts
06-Jan-21 12:06 45.589840 -122.590598 224 38ft 0kts
06-Jan-21 12:07 45.589840 -122.590598 224 38ft 0kts
06-Jan-21 12:08 45.589840 -122.590598 224 38ft 0kts
06-Jan-21 12:09 45.589840 -122.590598 224 38ft 0kts
06-Jan-21 12:10 45.589840 -122.590598 224 38ft 0kts
06-Jan-21 12:11 45.589840 -122.590598 224 38ft 0kts
06-Jan-21 12:12 45.589840 -122.590598 224 38ft 0kts
06-Jan-21 12:13 45.589840 -122.590598 224 38ft 0kts
06-Jan-21 12:14 45.589840 -122.590598 224 38ft 0kts
06-Jan-21 12:15 45.589840 -122.590598 224 38ft 0kts
06-Jan-21 12:16 45.589840 -122.590598 224 38ft 0kts
06-Jan-21 12:17 45.589840 -122.590598 224 38ft 0kts
06-Jan-21 12:18 45.589840 -122.590598 224 38ft 0kts
06-Jan-21 12:19 45.589840 -122.590598 224 38ft 0kts
06-Jan-21 12:20 45.589840 -122.590598 224 38ft 0kts
06-Jan-21 12:21 45.589840 -122.590598 224 38ft 0kts
06-Jan-21 12:22 45.589840 -122.590598 224 38ft 0kts
06-Jan-21 12:23 45.589840 -122.590598 224 38ft 0kts
06-Jan-21 12:24 45.589840 -122.590598 224 38ft 0kts
06-Jan-21 12:25 45.589840 -122.590598 224 38ft 0kts
06-Jan-21 12:26 45.589840 -122.590598 224 38ft 0kts
06-Jan-21 12:27 45.589840 -122.590598 224 38ft 0kts
06-Jan-21 12:28 45.589840 -122.590598 224 38ft 0kts
06-Jan-21 12:29 45.589840 -122.590598 224 38ft 0kts
06-Jan-21 12:30 45.589840 -122.590598 224 38ft 0kts
06-Jan-21 12:31 45.589840 -122.590598 224 38ft 0kts
06-Jan-21 12:32 45.589840 -122.590598 224 38ft 0kts
06-Jan-21 12:33 45.589840 -122.590598 224 38ft 0kts
06-Jan-21 12:34 45.589840 -122.590598 224 38ft 0kts
06-Jan-21 12:35 45.589840 -122.590598 224 38ft 0kts
06-Jan-21 12:36 45.589840 -122.590598 224 38ft 0kts
06-Jan-21 12:37 45.589840 -122.590598 224 38ft 0kts
06-Jan-21 12:38 45.589840 -122.590598 224 38ft 0kts
06-Jan-21 12:39 45.589914 -122.590494 225 38ft 2kts
06-Jan-21 12:40 45.590282 -122.589594 268 38ft 0kts
06-Jan-21 12:41 45.590282 -122.589595 268 38ft 0kts
06-Jan-21 12:42 45.590282 -122.589597 268 38ft 0kts
06-Jan-21 12:43 45.590282 -122.589600 268 38ft 0kts
06-Jan-21 12:44 45.592324 -122.594629 298 38ft 24kts
06-Jan-21 12:45 45.594781 -122.596907 61 38ft 14kts
06-Jan-21 12:46 45.586486 -122.574257 118 98ft 155kts
06-Jan-21 12:47 45.572168 -122.506012 100 2163ft 212kts
06-Jan-21 12:48 45.557395 -122.411272 106 4823ft 263kts
06-Jan-21 12:49 45.528490 -122.313997 140 8219ft 274kts
06-Jan-21 12:50 45.459382 -122.264291 173 11237ft 298kts
06-Jan-21 12:51 45.367965 -122.240728 174 13600ft 349kts
06-Jan-21 12:52 45.272591 -122.213328 174 17290ft 350kts
06-Jan-21 12:53 45.175985 -122.185363 175 20413ft 357kts
06-Jan-21 12:54 45.077373 -122.156122 172 23053ft 368kts
06-Jan-21 12:55 44.980063 -122.097589 163 25260ft 387kts
06-Jan-21 12:56 44.881789 -122.032001 163 27189ft 394kts
06-Jan-21 12:57 44.780779 -121.964928 163 28575ft 407kts
06-Jan-21 12:58 44.677582 -121.896002 164 30076ft 411kts
06-Jan-21 12:59 44.574335 -121.827540 164 31632ft 411kts
06-Jan-21 13:00 44.470768 -121.759275 164 33044ft 410kts
06-Jan-21 13:01 44.367471 -121.691480 163 34258ft 411kts
06-Jan-21 13:02 44.263062 -121.623228 163 35200ft 416kts
06-Jan-21 13:03 44.157785 -121.554678 163 36120ft 419kts
06-Jan-21 13:04 44.051889 -121.486002 163 36986ft 421kts
06-Jan-21 13:05 43.945251 -121.417117 162 37087ft 423kts
06-Jan-21 13:06 43.838063 -121.348150 162 37089ft 424kts
06-Jan-21 13:07 43.731057 -121.279571 162 37087ft 424kts
06-Jan-21 13:08 43.623601 -121.210978 162 37086ft 424kts
06-Jan-21 13:09 43.516334 -121.142774 162 37083ft 424kts
06-Jan-21 13:10 43.409213 -121.074645 162 37086ft 424kts
06-Jan-21 13:11 43.301644 -121.006911 162 37091ft 425kts
06-Jan-21 13:12 43.193928 -120.939348 162 37097ft 426kts
06-Jan-21 13:13 43.084175 -120.881803 167 37115ft 421kts
06-Jan-21 13:14 42.973778 -120.827575 167 37129ft 421kts
06-Jan-21 13:15 42.863853 -120.773244 167 37134ft 423kts
06-Jan-21 13:16 42.752597 -120.717734 166 37139ft 423kts
06-Jan-21 13:17 42.642213 -120.663122 167 37144ft 424kts
06-Jan-21 13:18 42.531206 -120.608487 166 37149ft 424kts
06-Jan-21 13:19 42.419947 -120.553946 166 37156ft 424kts
06-Jan-21 13:20 42.308681 -120.499609 166 37159ft 425kts
06-Jan-21 13:21 42.197596 -120.445564 166 37160ft 425kts
06-Jan-21 13:22 42.086087 -120.391518 166 37159ft 425kts
06-Jan-21 13:23 41.974680 -120.337724 166 37161ft 425kts
06-Jan-21 13:24 41.862947 -120.283971 166 37163ft 425kts
06-Jan-21 13:25 41.751549 -120.230578 166 37165ft 425kts
06-Jan-21 13:26 41.639958 -120.177292 166 37167ft 427kts
06-Jan-21 13:27 41.527979 -120.124014 166 37168ft 427kts
06-Jan-21 13:28 41.416241 -120.071048 166 37175ft 427kts
06-Jan-21 13:29 41.303792 -120.017937 166 37180ft 428kts
06-Jan-21 13:30 41.191375 -119.965043 166 37185ft 431kts
06-Jan-21 13:32 41.078103 -119.911920 166 37189ft 432kts
06-Jan-21 13:33 40.964933 -119.859066 166 37198ft 432kts
06-Jan-21 13:34 40.851045 -119.806062 166 37209ft 433kts
06-Jan-21 13:35 40.737377 -119.753361 166 37213ft 434kts
06-Jan-21 13:36 40.623356 -119.700669 166 37215ft 434kts
06-Jan-21 13:37 40.509101 -119.648066 166 37210ft 435kts
06-Jan-21 13:38 40.394771 -119.595621 166 37212ft 435kts
06-Jan-21 13:39 40.280418 -119.543354 166 37223ft 435kts
06-Jan-21 13:40 40.166101 -119.491290 166 37222ft 435kts
06-Jan-21 13:41 40.051494 -119.439280 166 37221ft 436kts
06-Jan-21 13:42 39.936772 -119.387404 166 37220ft 438kts
06-Jan-21 13:43 39.821439 -119.335435 166 37223ft 439kts
06-Jan-21 13:44 39.706150 -119.283672 166 37223ft 439kts
06-Jan-21 13:45 39.590655 -119.231997 166 37220ft 440kts
06-Jan-21 13:46 39.474359 -119.180146 166 37217ft 441kts
06-Jan-21 13:47 39.358442 -119.128650 166 37220ft 442kts
06-Jan-21 13:47 39.261259 -119.085496 165 37219ft 443kts
06-Jan-21 13:49 39.125390 -119.025538 166 37219ft 443kts
06-Jan-21 13:50 39.008294 -118.972892 160 37220ft 448kts
06-Jan-21 13:51 38.905132 -118.879248 143 37225ft 460kts
06-Jan-21 13:51 38.824709 -118.789495 143 37226ft 460kts
06-Jan-21 13:52 38.727687 -118.682102 143 37228ft 461kts
06-Jan-21 13:54 38.614594 -118.556302 143 37229ft 462kts
06-Jan-21 13:54 38.533305 -118.466663 143 37229ft 463kts
06-Jan-21 13:55 38.435507 -118.359292 142 37231ft 464kts
06-Jan-21 13:56 38.337350 -118.251943 142 37237ft 465kts
06-Jan-21 13:57 38.239180 -118.144977 142 37238ft 465kts
06-Jan-21 13:58 38.140606 -118.037967 142 37240ft 466kts
06-Jan-21 13:59 38.042001 -117.931315 142 37244ft 466kts
06-Jan-21 14:00 37.943262 -117.824912 143 37247ft 466kts
06-Jan-21 14:01 37.844108 -117.718448 143 37250ft 466kts
06-Jan-21 14:02 37.745180 -117.612611 142 37251ft 466kts
06-Jan-21 14:03 37.646339 -117.506922 142 37252ft 467kts
06-Jan-21 14:04 37.546879 -117.401362 143 37255ft 466kts
06-Jan-21 14:05 37.447539 -117.296432 142 37240ft 466kts
06-Jan-21 14:06 37.341785 -117.202364 149 37234ft 464kts
06-Jan-21 14:07 37.234584 -117.112460 149 37230ft 464kts
06-Jan-21 14:08 37.127036 -117.021685 148 37231ft 465kts
06-Jan-21 14:09 37.020004 -116.931052 148 37228ft 465kts
06-Jan-21 14:10 36.912196 -116.840742 149 35657ft 466kts
06-Jan-21 14:11 36.805581 -116.748053 142 32561ft 472kts
06-Jan-21 14:12 36.717157 -116.629275 132 30118ft 459kts
06-Jan-21 14:13 36.634768 -116.511006 133 27788ft 442kts
06-Jan-21 14:14 36.555002 -116.397979 133 25497ft 427kts
06-Jan-21 14:15 36.477740 -116.289041 133 23252ft 413kts
06-Jan-21 14:16 36.403023 -116.183682 133 21053ft 401kts
06-Jan-21 14:17 36.330039 -116.080971 134 18888ft 393kts
06-Jan-21 14:18 36.257480 -115.979650 134 16471ft 392kts
06-Jan-21 14:19 36.194340 -115.879647 118 15846ft 350kts
06-Jan-21 14:20 36.159009 -115.770713 113 14756ft 332kts
06-Jan-21 14:21 36.125390 -115.666314 113 13764ft 323kts
06-Jan-21 14:22 36.092386 -115.563932 114 12781ft 318kts
06-Jan-21 14:23 36.059585 -115.462909 114 11825ft 316kts
06-Jan-21 14:24 36.030544 -115.364343 102 10934ft 291kts
06-Jan-21 14:26 36.022085 -115.251245 96 9571ft 274kts
06-Jan-21 14:26 36.016679 -115.174719 95 8804ft 265kts
06-Jan-21 14:27 36.010661 -115.086438 95 8124ft 242kts
06-Jan-21 14:28 36.005938 -115.005555 94 7117ft 231kts
06-Jan-21 14:29 36.013365 -114.930982 40 5262ft 228kts
06-Jan-21 14:30 36.059551 -114.955413 293 4446ft 202kts
06-Jan-21 14:31 36.074428 -115.015444 266 3890ft 170kts
06-Jan-21 14:32 36.073387 -115.069338 270 3040ft 152kts
06-Jan-21 14:33 36.073644 -115.120760 271 2298ft 149kts
06-Jan-21 14:34 36.074430 -115.149896 300 2189ft 25kts
06-Jan-21 14:35 36.079371 -115.153689 335 2189ft 21kts
06-Jan-21 14:36 36.081155 -115.151387 25 2189ft 13kts
06-Jan-21 14:37 36.082273 -115.151028 14 2189ft 0kts
06-Jan-21 14:38 36.082273 -115.151028 14 2189ft 0kts
06-Jan-21 14:39 36.082273 -115.151028 14 2189ft 0kts
06-Jan-21 14:40 36.082273 -115.151028 14 2189ft 0kts
06-Jan-21 14:41 36.082273 -115.151028 14 2189ft 0kts
06-Jan-21 14:42 36.082273 -115.151028 14 2189ft 0kts
06-Jan-21 14:43 36.082273 -115.151028 14 2189ft 0kts
06-Jan-21 14:44 36.082273 -115.151028 14 2189ft 0kts
06-Jan-21 14:45 36.082273 -115.151028 14 2189ft 0kts
06-Jan-21 14:46 36.082273 -115.151028 14 2189ft 0kts
06-Jan-21 14:47 36.082273 -115.151028 14 2189ft 0kts
06-Jan-21 14:48 36.082273 -115.151028 14 2189ft 0kts

Navigation Log

Ident Type
Flight plan parsing failed, navigation log unavailable